TimeCDT,TemperatureF,Dew PointF,Humidity,Sea Level PressureIn,VisibilityMPH,Wind Direction,Wind SpeedMPH,Gust SpeedMPH,PrecipitationIn,Events,Conditions,WindDirDegrees,DateUTC
12:15 AM,44.6,35.6,71,30.27,10.0,NNW,6.9,-,N/A,,Clear,340,2012-10-27 05:15:00
12:35 AM,44.6,35.6,71,30.27,10.0,NNW,4.6,-,N/A,,Clear,330,2012-10-27 05:35:00
12:55 AM,44.6,35.6,71,30.26,10.0,North,6.9,-,N/A,,Clear,350,2012-10-27 05:55:00
1:15 AM,44.6,35.6,71,30.26,10.0,Calm,Calm,-,N/A,,Clear,0,2012-10-27 06:15:00
1:35 AM,44.6,35.6,71,30.25,10.0,North,9.2,-,N/A,,Clear,350,2012-10-27 06:35:00
1:55 AM,44.6,33.8,66,30.25,10.0,NNW,10.4,-,N/A,,Scattered Clouds,340,2012-10-27 06:55:00
2:15 AM,44.6,33.8,66,30.25,10.0,NNW,8.1,-,N/A,,Clear,340,2012-10-27 07:15:00
2:35 AM,44.6,33.8,66,30.24,10.0,NNW,6.9,-,N/A,,Clear,340,2012-10-27 07:35:00
2:55 AM,42.8,33.8,70,30.24,10.0,NNW,6.9,-,N/A,,Clear,340,2012-10-27 07:55:00
3:15 AM,42.8,33.8,70,30.24,10.0,Calm,Calm,-,N/A,,Clear,0,2012-10-27 08:15:00
3:35 AM,42.8,33.8,70,30.24,10.0,Calm,Calm,-,N/A,,Clear,0,2012-10-27 08:35:00
3:55 AM,42.8,33.8,70,30.24,10.0,Calm,Calm,-,N/A,,Scattered Clouds,0,2012-10-27 08:55:00
4:15 AM,42.8,35.6,76,30.24,10.0,Calm,Calm,-,N/A,,Mostly Cloudy,0,2012-10-27 09:15:00
4:35 AM,42.8,33.8,70,30.24,10.0,Calm,Calm,-,N/A,,Mostly Cloudy,0,2012-10-27 09:35:00
4:55 AM,41.0,33.8,76,30.24,10.0,Calm,Calm,-,N/A,,Scattered Clouds,0,2012-10-27 09:55:00
5:15 AM,41.0,33.8,76,30.25,10.0,NNW,4.6,-,N/A,,Clear,330,2012-10-27 10:15:00
5:35 AM,41.0,33.8,76,30.25,10.0,NNW,8.1,-,N/A,,Clear,340,2012-10-27 10:35:00
5:55 AM,41.0,33.8,76,30.25,10.0,NNW,8.1,-,N/A,,Clear,340,2012-10-27 10:55:00
6:15 AM,41.0,33.8,76,30.26,10.0,NNW,8.1,-,N/A,,Clear,330,2012-10-27 11:15:00
6:35 AM,41.0,33.8,76,30.27,10.0,Calm,Calm,-,N/A,,Clear,0,2012-10-27 11:35:00
6:55 AM,41.0,33.8,76,30.27,10.0,Calm,Calm,-,N/A,,Clear,0,2012-10-27 11:55:00
7:15 AM,39.2,33.8,81,30.27,10.0,Calm,Calm,-,N/A,,Clear,0,2012-10-27 12:15:00
7:35 AM,39.2,33.8,81,30.28,10.0,Calm,Calm,-,N/A,,Clear,0,2012-10-27 12:35:00
7:55 AM,39.2,33.8,81,30.29,10.0,Calm,Calm,-,N/A,,Clear,0,2012-10-27 12:55:00
8:15 AM,41.0,33.8,76,30.30,10.0,NNW,8.1,-,N/A,,Clear,330,2012-10-27 13:15:00
8:35 AM,42.8,33.8,70,30.30,10.0,NNW,10.4,-,N/A,,Clear,340,2012-10-27 13:35:00
8:55 AM,42.8,33.8,70,30.31,10.0,North,12.7,-,N/A,,Clear,350,2012-10-27 13:55:00
9:15 AM,44.6,33.8,66,30.31,10.0,North,12.7,-,N/A,,Clear,350,2012-10-27 14:15:00
9:35 AM,44.6,33.8,66,30.32,10.0,North,11.5,17.3,N/A,,Clear,350,2012-10-27 14:35:00
9:55 AM,46.4,33.8,62,30.32,10.0,North,11.5,-,N/A,,Clear,350,2012-10-27 14:55:00
10:15 AM,46.4,33.8,62,30.32,10.0,North,9.2,-,N/A,,Clear,360,2012-10-27 15:15:00
10:55 AM,50.0,33.8,54,30.32,10.0,North,9.2,-,N/A,,Clear,360,2012-10-27 15:55:00
11:15 AM,51.8,33.8,50,30.31,10.0,North,9.2,-,N/A,,Clear,10,2012-10-27 16:15:00
11:35 AM,51.8,33.8,50,30.31,10.0,North,10.4,-,N/A,,Clear,350,2012-10-27 16:35:00
11:55 AM,51.8,33.8,50,30.30,10.0,North,8.1,-,N/A,,Clear,350,2012-10-27 16:55:00
12:15 PM,53.6,33.8,47,30.28,10.0,North,10.4,-,N/A,,Clear,350,2012-10-27 17:15:00
12:35 PM,53.6,33.8,47,30.28,10.0,NNW,8.1,-,N/A,,Clear,330,2012-10-27 17:35:00
1:15 PM,55.4,33.8,44,30.24,10.0,NW,11.5,-,N/A,,Clear,320,2012-10-27 18:15:00
1:55 PM,55.4,33.8,44,30.21,10.0,NNW,10.4,-,N/A,,Clear,330,2012-10-27 18:55:00
2:15 PM,57.2,33.8,41,30.19,10.0,North,9.2,17.3,N/A,,Clear,350,2012-10-27 19:15:00
2:35 PM,59.0,33.8,39,30.18,10.0,NNW,10.4,17.3,N/A,,Clear,340,2012-10-27 19:35:00
2:55 PM,59.0,33.8,39,30.16,10.0,North,10.4,17.3,N/A,,Clear,350,2012-10-27 19:55:00
3:15 PM,59.0,32.0,36,30.16,10.0,NNW,11.5,-,N/A,,Clear,340,2012-10-27 20:15:00
3:35 PM,59.0,32.0,36,30.16,10.0,North,6.9,-,N/A,,Clear,360,2012-10-27 20:35:00
3:55 PM,59.0,32.0,36,30.15,10.0,NNW,10.4,19.6,N/A,,Clear,340,2012-10-27 20:55:00
4:15 PM,59.0,32.0,36,30.15,10.0,NNW,9.2,-,N/A,,Clear,330,2012-10-27 21:15:00
4:35 PM,59.0,32.0,36,30.14,10.0,NNW,10.4,-,N/A,,Clear,330,2012-10-27 21:35:00
4:55 PM,59.0,30.2,34,30.14,10.0,NNW,10.4,16.1,N/A,,Clear,340,2012-10-27 21:55:00
5:15 PM,59.0,32.0,36,30.14,10.0,North,9.2,-,N/A,,Clear,350,2012-10-27 22:15:00
5:35 PM,59.0,30.2,34,30.14,10.0,North,10.4,-,N/A,,Clear,10,2012-10-27 22:35:00
5:55 PM,57.2,32.0,38,30.15,10.0,NNW,8.1,-,N/A,,Clear,340,2012-10-27 22:55:00
6:15 PM,55.4,32.0,41,30.15,10.0,Calm,Calm,-,N/A,,Clear,0,2012-10-27 23:15:00
6:35 PM,51.8,33.8,50,30.16,10.0,Calm,Calm,-,N/A,,Clear,0,2012-10-27 23:35:00
6:55 PM,51.8,33.8,50,30.16,10.0,Calm,Calm,-,N/A,,Clear,0,2012-10-27 23:55:00
7:15 PM,50.0,33.8,54,30.17,10.0,Calm,Calm,-,N/A,,Clear,0,2012-10-28 00:15:00
7:35 PM,46.4,35.6,66,30.17,10.0,Calm,Calm,-,N/A,,Clear,0,2012-10-28 00:35:00
7:55 PM,48.2,33.8,58,30.18,7.0,Calm,Calm,-,N/A,,Clear,0,2012-10-28 00:55:00
8:15 PM,46.4,33.8,62,30.19,10.0,Calm,Calm,-,N/A,,Clear,0,2012-10-28 01:15:00
8:35 PM,46.4,33.8,62,30.19,10.0,Calm,Calm,-,N/A,,Clear,0,2012-10-28 01:35:00
8:55 PM,46.4,33.8,62,30.20,7.0,Calm,Calm,-,N/A,,Clear,0,2012-10-28 01:55:00
9:15 PM,46.4,33.8,62,30.20,7.0,Calm,Calm,-,N/A,,Clear,0,2012-10-28 02:15:00
9:35 PM,46.4,33.8,62,30.20,5.0,Calm,Calm,-,N/A,,Haze,0,2012-10-28 02:35:00
9:55 PM,44.6,33.8,66,30.21,5.0,Calm,Calm,-,N/A,,Haze,0,2012-10-28 02:55:00
11:55 PM,39.2,35.6,87,30.23,10.0,Calm,Calm,-,N/A,,Clear,0,2012-10-28 04:55:00